Bei Facebook empfehlenBei Twitter postenGoogle plusPinterest

Das Wetter im Erzgebirge am 05.08.2017

Wetter und Klima am 05.08.2017 Holzhau im Erzgebirge (630m ü.NN)
Letzte gemessene Temperatur und Uhrzeit der Messung23:45:00 Uhr15.20 °C
Temperatur (Maximum / Höchstwert) und Uhrzeit der Messung16:30:00 Uhr27.10 °C
Temperatur (Minimum / Tiefstwert) und Uhrzeit der Messung05:45:0010.20 °C
Errechneter Absolutwert der Temperaturschwankungen zwischen Tmin und Tmax des Tages16.90 K
Errechnete Tagesmitteltemperatur18.50625 °C
Gesamt - Niederschlag des Tages (in flüssiger Form)2.59 Liter / m²
Luftdruck (Maximum / Höchstwert) und Zeitpunkt der Messung06:45:00 Uhr1013.80 hPa
Luftdruck (Minimum / Tiefstwert) und Zeitpunkt der Messung18:30:00 Uhr1010.80 hPa
Errechneter Absolutwert der Luftdruckschwankungen des Tages3.00 hPa
Höchste gemessene Windgeschwindigkeit und Uhrzeit der Messung14:30:00 Uhr58.32 km/h
Errechnete Windhäufigkeit in Relation zu den Messwerten des Tages17.70833 %
Niedrigste Windkühle (Windchill) und Zeitpunkt der Messung05:45:00 Uhr10.20 °C
Taupunkt (Maximum / Höchstwert) und Uhrzeit der Messung16:00:00 Uhr15.50 °C
Taupunkt (Minimum / Tiefstwert) und Uhrzeit der Messung05:45:008.80 °C
Anzahl der automatisch eingelesenen Messwerte 96

Detaillierte Wetter- und Klima- Messwerte für den 05.08.2017 in Holzhau im Erzgebirge (630m ü.NN)
ZeitTemperaturLuftdruckRel. LuftfeuchteWindWindrichtungWindchillTaupunktNiederschlag l/m²
23:45:0015.20 °C1013.50 hPa90.00 %13.60 °C2.59
23:30:0015.50 °C1013.30 hPa90.00 %13.90 °C2.59
23:15:0015.60 °C1013.20 hPa90.00 %14.00 °C2.59
23:00:0015.80 °C1013.20 hPa90.00 %14.20 °C2.59
22:45:0015.80 °C1013.20 hPa90.00 %14.20 °C2.59
22:30:0016.10 °C1012.90 hPa90.00 %14.50 °C2.59
22:15:0016.40 °C1012.70 hPa91.00 %14.90 °C2.59
22:00:0016.40 °C1012.90 hPa90.00 %14.80 °C2.59
21:45:0016.10 °C1012.80 hPa89.00 %14.30 °C2.59
21:30:0016.10 °C1012.40 hPa88.00 %14.10 °C2.59
21:15:0016.30 °C1012.60 hPa87.00 %14.10 °C2.59
21:00:0016.40 °C1012.60 hPa86.00 %14.10 °C2.59
20:45:0016.60 °C1012.40 hPa86.00 %14.20 °C2.59
20:30:0016.90 °C1012.40 hPa84.00 %14.20 °C2.59
20:15:0017.20 °C1012.60 hPa82.00 %14.10 °C2.07
20:00:0017.90 °C1012.90 hPa81.00 %14.60 °C1.55
19:45:0019.10 °C1012.40 hPa75.00 %14.60 °C 
19:30:0019.90 °C1012.00 hPa72.00 %14.70 °C 
19:15:0020.80 °C1011.80 hPa68.00 %14.70 °C 
19:00:0022.50 °C1011.60 hPa63.00 %15.10 °C 
18:45:0023.50 °C1011.10 hPa58.00 %37.44 km/hW24.70 °C14.80 °C 
18:30:0023.70 °C1010.80 hPa58.00 %14.90 °C 
18:15:0024.30 °C1010.80 hPa55.00 %30.96 km/hWSW25.80 °C14.70 °C 
18:00:0024.80 °C1011.00 hPa53.00 %14.60 °C 
17:45:0025.40 °C1011.00 hPa51.00 %14.50 °C 
17:30:0025.70 °C1011.20 hPa51.00 %14.80 °C 
17:15:0026.20 °C1011.10 hPa49.00 %14.60 °C 
17:00:0026.50 °C1011.10 hPa50.00 %15.20 °C 
16:45:0026.80 °C1011.30 hPa48.00 %14.90 °C 
16:30:0027.10 °C1011.50 hPa47.00 %14.80 °C 
16:15:0026.80 °C1011.60 hPa49.00 %30.96 km/hSW28.70 °C15.20 °C 
16:00:0027.10 °C1011.70 hPa49.00 %19.44 km/hSW29.10 °C15.50 °C 
15:45:0026.70 °C1011.70 hPa50.00 %15.40 °C 
15:30:0026.20 °C1011.90 hPa49.00 %14.60 °C 
15:15:0026.10 °C1012.00 hPa48.00 %14.20 °C 
15:00:0026.60 °C1012.10 hPa46.00 %21.96 km/hSSO28.60 °C14.00 °C 
14:45:0027.00 °C1012.20 hPa46.00 %14.40 °C 
14:30:0027.10 °C1012.40 hPa46.00 %58.32 km/hSW29.00 °C14.50 °C 
14:15:0026.50 °C1012.50 hPa47.00 %38.88 km/hSW28.30 °C14.30 °C 
14:00:0026.60 °C1012.50 hPa44.00 %13.30 °C 
13:45:0026.80 °C1012.30 hPa46.00 %16.92 km/hWSW26.80 °C14.20 °C 
13:30:0026.40 °C1012.50 hPa48.00 %12.96 km/hONO26.40 °C14.50 °C 
13:15:0026.30 °C1012.60 hPa48.00 %19.44 km/hS28.20 °C14.40 °C 
13:00:0025.90 °C1012.60 hPa50.00 %47.88 km/hOSO27.60 °C14.70 °C 
12:45:0025.90 °C1012.60 hPa52.00 %15.30 °C 
12:30:0026.20 °C1012.70 hPa51.00 %5.04 km/hWSW26.20 °C15.30 °C 
12:15:0025.00 °C1012.60 hPa53.00 %23.40 km/hSW26.70 °C14.80 °C 
12:00:0024.00 °C1013.00 hPa54.00 %14.10 °C 
11:45:0023.60 °C1013.00 hPa56.00 %14.30 °C 
11:30:0023.60 °C1013.20 hPa56.00 %14.30 °C 
11:15:0023.60 °C1013.20 hPa57.00 %21.96 km/hSSW25.10 °C14.60 °C 
11:00:0023.20 °C1013.30 hPa57.00 %14.20 °C 
10:45:0022.50 °C1013.30 hPa56.00 %13.30 °C 
10:30:0022.30 °C1013.20 hPa58.00 %10.44 km/hSSW22.30 °C13.60 °C 
10:15:0021.90 °C1013.20 hPa60.00 %13.80 °C 
10:00:0021.30 °C1013.10 hPa60.00 %18.00 km/hSW22.60 °C13.20 °C 
09:45:0021.10 °C1013.30 hPa60.00 %30.96 km/hSSW22.00 °C13.00 °C 
09:30:0020.60 °C1013.30 hPa63.00 %13.30 °C 
09:15:0020.10 °C1013.10 hPa67.00 %13.80 °C 
09:00:0019.60 °C1013.20 hPa68.00 %13.50 °C 
08:45:0019.10 °C1013.40 hPa74.00 %14.40 °C 
08:30:0018.40 °C1013.30 hPa77.00 %14.30 °C 
08:15:0017.80 °C1013.40 hPa79.00 %14.10 °C 
08:00:0017.20 °C1013.50 hPa80.00 %13.70 °C 
07:45:0016.10 °C1013.50 hPa84.00 %13.40 °C 
07:30:0013.90 °C1013.70 hPa91.00 %12.50 °C 
07:15:0011.60 °C1013.50 hPa92.00 %10.30 °C 
07:00:0011.10 °C1013.70 hPa92.00 %9.90 °C 
06:45:0010.90 °C1013.80 hPa92.00 %9.70 °C 
06:30:0010.50 °C1013.60 hPa92.00 %9.30 °C 
06:15:0010.40 °C1013.70 hPa92.00 %9.20 °C 
06:00:0010.30 °C1013.70 hPa92.00 %9.10 °C 
05:45:0010.20 °C1013.60 hPa91.00 %8.80 °C 
05:30:0010.20 °C1013.30 hPa91.00 %8.80 °C 
05:15:0010.40 °C1013.30 hPa91.00 %9.00 °C 
05:00:0010.50 °C1013.50 hPa91.00 %9.10 °C 
04:45:0010.60 °C1013.40 hPa91.00 %9.20 °C 
04:30:0010.90 °C1013.30 hPa90.00 %9.30 °C 
04:15:0011.00 °C1013.20 hPa90.00 %9.40 °C 
04:00:0011.20 °C1013.40 hPa90.00 %9.60 °C 
03:45:0011.30 °C1013.40 hPa89.00 %9.60 °C 
03:30:0011.60 °C1013.40 hPa89.00 %9.90 °C 
03:15:0011.90 °C1013.30 hPa89.00 %10.10 °C 
03:00:0011.90 °C1013.30 hPa89.00 %10.10 °C 
02:45:0011.80 °C1013.30 hPa89.00 %10.00 °C 
02:30:0011.60 °C1013.20 hPa89.00 %9.90 °C 
02:15:0011.60 °C1013.20 hPa89.00 %9.90 °C 
02:00:0011.90 °C1013.40 hPa88.00 %10.00 °C 
01:45:0011.80 °C1013.30 hPa88.00 %9.90 °C 
01:30:0011.90 °C1013.30 hPa88.00 %10.00 °C 
01:15:0011.90 °C1013.20 hPa87.00 %9.80 °C 
01:00:0012.10 °C1013.10 hPa87.00 %10.00 °C 
00:45:0012.10 °C1013.10 hPa87.00 %10.00 °C 
00:30:0012.30 °C1013.00 hPa86.00 %10.00 °C 
00:15:0012.60 °C1013.00 hPa85.00 %10.10 °C 
00:00:0012.80 °C1013.10 hPa85.00 %10.30 °C 

Permanenter Link zu dieser Seite: Wetter im Erzgebirge am 05.08.2017
Performance-Info: Die Erstellung der Seite / Statistik(en) / Tabelle(n) erforderte 5 Datenbankserver-Abfrage(n) und dauerte 96 Millisekunden. (Dieser Messwert ist von der Gesamt-Auslastung des Servers abhängig.)
Erzgebirge - Wetter | Erzgebirge - Wetter (Mobilgeräte) | Komplette Klimadatenbank